sensor_id;sensor_type;location;lat;lon;timestamp;pressure;altitude;pressure_sealevel;temperature;humidity
27984;BME280;15317;50.360;8.726;2024-03-23T00:57:10;98624.63;;;7.29;100.00
27984;BME280;15317;50.360;8.726;2024-03-23T01:02:12;98628.38;;;7.36;100.00
27984;BME280;15317;50.360;8.726;2024-03-23T01:07:16;98616.72;;;7.36;100.00
27984;BME280;15317;50.360;8.726;2024-03-23T01:12:18;98625.69;;;7.36;100.00
27984;BME280;15317;50.360;8.726;2024-03-23T01:17:20;98627.38;;;7.45;100.00
27984;BME280;15317;50.360;8.726;2024-03-23T01:22:24;98609.69;;;7.51;100.00
27984;BME280;15317;50.360;8.726;2024-03-23T01:27:26;98592.28;;;7.45;100.00
27984;BME280;15317;50.360;8.726;2024-03-23T01:32:28;98591.63;;;7.43;100.00
27984;BME280;15317;50.360;8.726;2024-03-23T01:37:32;98591.22;;;7.38;100.00
27984;BME280;15317;50.360;8.726;2024-03-23T01:42:34;98567.56;;;7.32;100.00
27984;BME280;15317;50.360;8.726;2024-03-23T01:47:36;98546.72;;;7.17;100.00
27984;BME280;15317;50.360;8.726;2024-03-23T01:52:40;98548.50;;;7.00;100.00
27984;BME280;15317;50.360;8.726;2024-03-23T01:57:42;98546.59;;;6.92;100.00
27984;BME280;15317;50.360;8.726;2024-03-23T02:02:45;98547.97;;;6.96;100.00
27984;BME280;15317;50.360;8.726;2024-03-23T02:07:49;98531.41;;;7.25;100.00
27984;BME280;15317;50.360;8.726;2024-03-23T02:12:52;98506.81;;;7.36;100.00
27984;BME280;15317;50.360;8.726;2024-03-23T02:17:54;98514.44;;;7.41;100.00
27984;BME280;15317;50.360;8.726;2024-03-23T02:22:58;98511.91;;;7.47;100.00
27984;BME280;15317;50.360;8.726;2024-03-23T02:28:00;98498.59;;;7.54;100.00
27984;BME280;15317;50.360;8.726;2024-03-23T02:33:02;98490.66;;;7.61;100.00
27984;BME280;15317;50.360;8.726;2024-03-23T02:38:06;98492.22;;;7.63;100.00
27984;BME280;15317;50.360;8.726;2024-03-23T02:43:08;98478.19;;;7.68;100.00
27984;BME280;15317;50.360;8.726;2024-03-23T02:48:10;98471.28;;;7.73;100.00
27984;BME280;15317;50.360;8.726;2024-03-23T02:53:14;98453.88;;;7.76;100.00
27984;BME280;15317;50.360;8.726;2024-03-23T02:58:16;98447.78;;;7.74;100.00
27984;BME280;15317;50.360;8.726;2024-03-23T03:03:18;98434.63;;;7.71;100.00
27984;BME280;15317;50.360;8.726;2024-03-23T03:08:22;98448.31;;;7.69;100.00
27984;BME280;15317;50.360;8.726;2024-03-23T03:13:24;98436.28;;;7.72;100.00
27984;BME280;15317;50.360;8.726;2024-03-23T03:18:26;98424.50;;;7.81;100.00
27984;BME280;15317;50.360;8.726;2024-03-23T03:23:29;98418.72;;;7.92;100.00
27984;BME280;15317;50.360;8.726;2024-03-23T03:28:32;98397.78;;;7.94;100.00
27984;BME280;15317;50.360;8.726;2024-03-23T03:33:34;98406.41;;;7.98;100.00
27984;BME280;15317;50.360;8.726;2024-03-23T03:38:38;98402.88;;;7.97;100.00
27984;BME280;15317;50.360;8.726;2024-03-23T03:43:40;98388.50;;;7.88;100.00
27984;BME280;15317;50.360;8.726;2024-03-23T03:48:42;98381.25;;;7.81;100.00
27984;BME280;15317;50.360;8.726;2024-03-23T03:53:47;98386.66;;;7.81;100.00
27984;BME280;15317;50.360;8.726;2024-03-23T03:58:49;98403.88;;;7.72;100.00
27984;BME280;15317;50.360;8.726;2024-03-23T04:03:51;98401.53;;;7.77;100.00
27984;BME280;15317;50.360;8.726;2024-03-23T04:08:55;98415.53;;;8.05;100.00
27984;BME280;15317;50.360;8.726;2024-03-23T04:13:57;98435.28;;;8.29;100.00
27984;BME280;15317;50.360;8.726;2024-03-23T04:18:59;98449.81;;;8.28;100.00
27984;BME280;15317;50.360;8.726;2024-03-23T04:24:03;98458.94;;;8.19;100.00
27984;BME280;15317;50.360;8.726;2024-03-23T04:29:06;98467.75;;;8.13;100.00
27984;BME280;15317;50.360;8.726;2024-03-23T04:34:08;98451.03;;;8.02;100.00
27984;BME280;15317;50.360;8.726;2024-03-23T04:39:12;98460.31;;;7.91;100.00
27984;BME280;15317;50.360;8.726;2024-03-23T04:44:14;98474.81;;;7.74;100.00
27984;BME280;15317;50.360;8.726;2024-03-23T04:49:16;98471.91;;;7.51;100.00
27984;BME280;15317;50.360;8.726;2024-03-23T04:54:19;98484.00;;;7.23;100.00
27984;BME280;15317;50.360;8.726;2024-03-23T04:59:21;98496.56;;;7.06;100.00
27984;BME280;15317;50.360;8.726;2024-03-23T05:04:24;98501.25;;;6.96;100.00
27984;BME280;15317;50.360;8.726;2024-03-23T05:09:27;98515.84;;;6.85;100.00
27984;BME280;15317;50.360;8.726;2024-03-23T05:14:31;98510.25;;;6.79;100.00
27984;BME280;15317;50.360;8.726;2024-03-23T05:19:33;98520.13;;;6.70;100.00
27984;BME280;15317;50.360;8.726;2024-03-23T05:24:37;98540.56;;;6.72;100.00
27984;BME280;15317;50.360;8.726;2024-03-23T05:29:39;98546.28;;;6.69;100.00
27984;BME280;15317;50.360;8.726;2024-03-23T05:34:41;98550.00;;;6.68;100.00
27984;BME280;15317;50.360;8.726;2024-03-23T05:39:45;98564.81;;;6.64;100.00
27984;BME280;15317;50.360;8.726;2024-03-23T05:44:49;98565.22;;;6.52;100.00
27984;BME280;15317;50.360;8.726;2024-03-23T05:49:51;98597.88;;;6.49;100.00
27984;BME280;15317;50.360;8.726;2024-03-23T05:54:55;98617.16;;;6.36;100.00
27984;BME280;15317;50.360;8.726;2024-03-23T05:59:57;98617.03;;;6.20;100.00
27984;BME280;15317;50.360;8.726;2024-03-23T06:04:59;98628.84;;;6.09;100.00
27984;BME280;15317;50.360;8.726;2024-03-23T06:10:05;98660.13;;;6.02;100.00
27984;BME280;15317;50.360;8.726;2024-03-23T06:15:08;98669.56;;;5.88;100.00
27984;BME280;15317;50.360;8.726;2024-03-23T06:20:12;98661.19;;;5.91;100.00
27984;BME280;15317;50.360;8.726;2024-03-23T06:25:16;98659.06;;;5.85;100.00
27984;BME280;15317;50.360;8.726;2024-03-23T06:30:18;98647.19;;;5.78;100.00
27984;BME280;15317;50.360;8.726;2024-03-23T06:35:20;98640.38;;;5.74;100.00
27984;BME280;15317;50.360;8.726;2024-03-23T06:40:24;98672.28;;;5.79;100.00
27984;BME280;15317;50.360;8.726;2024-03-23T06:45:26;98703.59;;;6.17;100.00
27984;BME280;15317;50.360;8.726;2024-03-23T06:50:31;98710.41;;;6.39;100.00
27984;BME280;15317;50.360;8.726;2024-03-23T06:55:35;98727.53;;;6.47;100.00
27984;BME280;15317;50.360;8.726;2024-03-23T07:00:37;98742.03;;;6.64;100.00
27984;BME280;15317;50.360;8.726;2024-03-23T07:05:41;98746.97;;;6.68;100.00
27984;BME280;15317;50.360;8.726;2024-03-23T07:10:45;98776.53;;;6.88;100.00
27984;BME280;15317;50.360;8.726;2024-03-23T07:15:51;98773.28;;;7.02;100.00
27984;BME280;15317;50.360;8.726;2024-03-23T07:20:54;98780.66;;;7.35;100.00
27984;BME280;15317;50.360;8.726;2024-03-23T07:25:59;98782.94;;;8.33;100.00
27984;BME280;15317;50.360;8.726;2024-03-23T07:31:02;98791.63;;;9.03;100.00
27984;BME280;15317;50.360;8.726;2024-03-23T07:36:05;98799.34;;;8.66;100.00
27984;BME280;15317;50.360;8.726;2024-03-23T07:41:10;98805.31;;;8.86;100.00
27984;BME280;15317;50.360;8.726;2024-03-23T07:46:12;98829.72;;;9.10;100.00
27984;BME280;15317;50.360;8.726;2024-03-23T07:51:16;98841.56;;;8.51;100.00
27984;BME280;15317;50.360;8.726;2024-03-23T07:56:20;98841.16;;;8.38;100.00
27984;BME280;15317;50.360;8.726;2024-03-23T08:01:24;98858.34;;;8.62;100.00
27984;BME280;15317;50.360;8.726;2024-03-23T08:06:26;98866.03;;;8.15;100.00
27984;BME280;15317;50.360;8.726;2024-03-23T08:11:30;98869.78;;;7.97;100.00
27984;BME280;15317;50.360;8.726;2024-03-23T08:16:33;98865.88;;;7.73;100.00
27984;BME280;15317;50.360;8.726;2024-03-23T08:21:36;98887.09;;;7.86;100.00
27984;BME280;15317;50.360;8.726;2024-03-23T08:26:39;98882.81;;;7.58;100.00
27984;BME280;15317;50.360;8.726;2024-03-23T08:31:41;98900.19;;;7.37;100.00
27984;BME280;15317;50.360;8.726;2024-03-23T08:36:43;98898.78;;;7.86;100.00
27984;BME280;15317;50.360;8.726;2024-03-23T08:41:47;98897.19;;;8.87;100.00
27984;BME280;15317;50.360;8.726;2024-03-23T08:46:49;98897.63;;;10.71;100.00
27984;BME280;15317;50.360;8.726;2024-03-23T08:51:51;98898.81;;;11.61;100.00
27984;BME280;15317;50.360;8.726;2024-03-23T08:56:56;98917.56;;;11.86;98.01
27984;BME280;15317;50.360;8.726;2024-03-23T09:01:58;98926.97;;;10.75;98.95
27984;BME280;15317;50.360;8.726;2024-03-23T09:07:00;98926.94;;;10.83;100.00
27984;BME280;15317;50.360;8.726;2024-03-23T09:12:05;98916.97;;;11.45;93.35
27984;BME280;15317;50.360;8.726;2024-03-23T09:17:07;98911.88;;;11.12;91.36
27984;BME280;15317;50.360;8.726;2024-03-23T09:22:10;98922.09;;;10.46;97.32
27984;BME280;15317;50.360;8.726;2024-03-23T09:27:14;98905.91;;;10.77;96.66
27984;BME280;15317;50.360;8.726;2024-03-23T09:32:16;98919.84;;;10.66;100.00
27984;BME280;15317;50.360;8.726;2024-03-23T09:37:18;98915.53;;;10.16;98.58
27984;BME280;15317;50.360;8.726;2024-03-23T09:42:22;98908.91;;;9.86;100.00
27984;BME280;15317;50.360;8.726;2024-03-23T09:47:25;98905.81;;;9.33;96.77
27984;BME280;15317;50.360;8.726;2024-03-23T09:52:27;98910.38;;;9.32;93.18
27984;BME280;15317;50.360;8.726;2024-03-23T09:57:31;98923.94;;;9.40;97.81
27984;BME280;15317;50.360;8.726;2024-03-23T10:02:34;98907.22;;;9.85;95.03
27984;BME280;15317;50.360;8.726;2024-03-23T10:07:36;98913.25;;;10.52;90.08
27984;BME280;15317;50.360;8.726;2024-03-23T10:12:44;98917.78;;;10.76;84.93
27984;BME280;15317;50.360;8.726;2024-03-23T10:17:46;98912.09;;;11.02;94.98
27984;BME280;15317;50.360;8.726;2024-03-23T10:22:49;98915.81;;;11.63;91.29
27984;BME280;15317;50.360;8.726;2024-03-23T10:27:59;98959.41;;;9.55;95.37
27984;BME280;15317;50.360;8.726;2024-03-23T10:33:09;99014.56;;;7.56;100.00
27984;BME280;15317;50.360;8.726;2024-03-23T10:38:11;98991.50;;;6.23;100.00
27984;BME280;15317;50.360;8.726;2024-03-23T10:43:17;98949.84;;;5.88;100.00
27984;BME280;15317;50.360;8.726;2024-03-23T10:48:20;98928.81;;;6.11;100.00
27984;BME280;15317;50.360;8.726;2024-03-23T10:53:25;98926.19;;;7.38;100.00
27984;BME280;15317;50.360;8.726;2024-03-23T10:58:31;98914.56;;;9.19;100.00
27984;BME280;15317;50.360;8.726;2024-03-23T11:03:35;98915.34;;;9.77;100.00
27984;BME280;15317;50.360;8.726;2024-03-23T11:08:39;98903.44;;;9.38;100.00
27984;BME280;15317;50.360;8.726;2024-03-23T11:13:44;98896.22;;;8.96;100.00
27984;BME280;15317;50.360;8.726;2024-03-23T11:18:46;98892.38;;;8.65;100.00
27984;BME280;15317;50.360;8.726;2024-03-23T11:23:48;98896.19;;;8.88;100.00
27984;BME280;15317;50.360;8.726;2024-03-23T11:29:08;98886.38;;;8.95;100.00
27984;BME280;15317;50.360;8.726;2024-03-23T11:34:10;98892.47;;;8.89;100.00
27984;BME280;15317;50.360;8.726;2024-03-23T11:39:13;98874.44;;;9.14;100.00
27984;BME280;15317;50.360;8.726;2024-03-23T11:44:19;98869.38;;;9.27;100.00
27984;BME280;15317;50.360;8.726;2024-03-23T11:49:24;98872.03;;;10.57;100.00
27984;BME280;15317;50.360;8.726;2024-03-23T11:54:26;98863.97;;;11.64;100.00
27984;BME280;15317;50.360;8.726;2024-03-23T11:59:34;98860.09;;;12.19;92.97
27984;BME280;15317;50.360;8.726;2024-03-23T12:04:36;98835.69;;;11.51;100.00
27984;BME280;15317;50.360;8.726;2024-03-23T12:09:39;98829.66;;;12.15;91.38
27984;BME280;15317;50.360;8.726;2024-03-23T12:14:42;98797.19;;;11.99;87.45
27984;BME280;15317;50.360;8.726;2024-03-23T12:19:45;98807.03;;;12.88;81.02
27984;BME280;15317;50.360;8.726;2024-03-23T12:24:47;98821.78;;;12.50;81.11
27984;BME280;15317;50.360;8.726;2024-03-23T12:29:51;98826.38;;;11.45;90.45
27984;BME280;15317;50.360;8.726;2024-03-23T12:34:53;98826.91;;;10.87;94.96
27984;BME280;15317;50.360;8.726;2024-03-23T12:39:55;98830.81;;;10.45;100.00
27984;BME280;15317;50.360;8.726;2024-03-23T12:44:59;98835.84;;;10.01;100.00
27984;BME280;15317;50.360;8.726;2024-03-23T12:50:01;98869.91;;;9.47;100.00
27984;BME280;15317;50.360;8.726;2024-03-23T12:55:04;98922.56;;;8.26;100.00
27984;BME280;15317;50.360;8.726;2024-03-23T13:00:09;98926.50;;;6.63;100.00
27984;BME280;15317;50.360;8.726;2024-03-23T13:05:12;98905.59;;;5.91;100.00
27984;BME280;15317;50.360;8.726;2024-03-23T13:10:15;98911.97;;;5.61;100.00
27984;BME280;15317;50.360;8.726;2024-03-23T13:15:18;98916.78;;;5.48;100.00
27984;BME280;15317;50.360;8.726;2024-03-23T13:20:21;98917.94;;;5.36;100.00
27984;BME280;15317;50.360;8.726;2024-03-23T13:25:24;98933.63;;;5.21;100.00
27984;BME280;15317;50.360;8.726;2024-03-23T13:30:27;98965.69;;;5.24;100.00
27984;BME280;15317;50.360;8.726;2024-03-23T13:35:29;98943.78;;;4.98;100.00
27984;BME280;15317;50.360;8.726;2024-03-23T13:40:31;98931.50;;;4.65;100.00
27984;BME280;15317;50.360;8.726;2024-03-23T13:45:35;98878.59;;;4.85;100.00
27984;BME280;15317;50.360;8.726;2024-03-23T13:50:37;98855.94;;;5.74;100.00
27984;BME280;15317;50.360;8.726;2024-03-23T13:55:46;98853.19;;;6.95;100.00
27984;BME280;15317;50.360;8.726;2024-03-23T14:00:49;98860.28;;;7.92;100.00
27984;BME280;15317;50.360;8.726;2024-03-23T14:05:51;98861.09;;;8.70;100.00
27984;BME280;15317;50.360;8.726;2024-03-23T14:10:54;98878.38;;;10.09;100.00
27984;BME280;15317;50.360;8.726;2024-03-23T14:15:59;98875.34;;;10.20;100.00
27984;BME280;15317;50.360;8.726;2024-03-23T14:21:02;98887.22;;;10.19;100.00
27984;BME280;15317;50.360;8.726;2024-03-23T14:26:04;98872.44;;;9.97;100.00
27984;BME280;15317;50.360;8.726;2024-03-23T14:31:07;98865.84;;;9.83;100.00
27984;BME280;15317;50.360;8.726;2024-03-23T14:36:11;98871.25;;;9.35;100.00
27984;BME280;15317;50.360;8.726;2024-03-23T14:41:13;98856.66;;;8.61;100.00
27984;BME280;15317;50.360;8.726;2024-03-23T14:46:17;98843.03;;;8.79;100.00
27984;BME280;15317;50.360;8.726;2024-03-23T14:51:19;98839.03;;;9.16;100.00
27984;BME280;15317;50.360;8.726;2024-03-23T14:56:22;98841.28;;;9.52;100.00
27984;BME280;15317;50.360;8.726;2024-03-23T15:01:26;98831.44;;;9.43;96.50
27984;BME280;15317;50.360;8.726;2024-03-23T15:06:28;98836.19;;;9.58;99.34
27984;BME280;15317;50.360;8.726;2024-03-23T15:11:31;98835.34;;;9.49;100.00
27984;BME280;15317;50.360;8.726;2024-03-23T15:16:35;98842.38;;;9.01;100.00
27984;BME280;15317;50.360;8.726;2024-03-23T15:21:37;98850.56;;;9.18;100.00
27984;BME280;15317;50.360;8.726;2024-03-23T15:26:39;98840.97;;;8.81;100.00
27984;BME280;15317;50.360;8.726;2024-03-23T15:31:42;98834.13;;;8.27;100.00
27984;BME280;15317;50.360;8.726;2024-03-23T15:36:46;98826.69;;;7.69;100.00
27984;BME280;15317;50.360;8.726;2024-03-23T15:41:48;98838.13;;;7.63;100.00
27984;BME280;15317;50.360;8.726;2024-03-23T15:46:52;98832.16;;;7.60;100.00
27984;BME280;15317;50.360;8.726;2024-03-23T15:51:54;98826.03;;;7.49;100.00
27984;BME280;15317;50.360;8.726;2024-03-23T15:56:56;98800.19;;;7.29;100.00
27984;BME280;15317;50.360;8.726;2024-03-23T16:02:00;98795.25;;;7.07;100.00
27984;BME280;15317;50.360;8.726;2024-03-23T16:07:03;98791.78;;;6.97;100.00
27984;BME280;15317;50.360;8.726;2024-03-23T16:12:06;98769.88;;;7.00;100.00
27984;BME280;15317;50.360;8.726;2024-03-23T16:17:09;98774.88;;;7.12;100.00
27984;BME280;15317;50.360;8.726;2024-03-23T16:22:11;98781.81;;;7.33;100.00
27984;BME280;15317;50.360;8.726;2024-03-23T16:27:13;98789.94;;;7.15;100.00
27984;BME280;15317;50.360;8.726;2024-03-23T16:32:17;98781.69;;;6.99;100.00
27984;BME280;15317;50.360;8.726;2024-03-23T16:37:19;98799.31;;;6.75;100.00
27984;BME280;15317;50.360;8.726;2024-03-23T16:42:21;98790.16;;;6.68;100.00
27984;BME280;15317;50.360;8.726;2024-03-23T16:47:25;98790.78;;;6.80;100.00
27984;BME280;15317;50.360;8.726;2024-03-23T16:52:28;98786.75;;;6.66;100.00
27984;BME280;15317;50.360;8.726;2024-03-23T16:57:30;98783.44;;;6.72;100.00
27984;BME280;15317;50.360;8.726;2024-03-23T17:02:34;98798.69;;;6.64;100.00
27984;BME280;15317;50.360;8.726;2024-03-23T17:07:38;98818.31;;;6.56;100.00
27984;BME280;15317;50.360;8.726;2024-03-23T17:12:41;98809.06;;;6.41;100.00
27984;BME280;15317;50.360;8.726;2024-03-23T17:17:44;98822.09;;;6.46;100.00
27984;BME280;15317;50.360;8.726;2024-03-23T17:22:53;98829.03;;;6.48;100.00
27984;BME280;15317;50.360;8.726;2024-03-23T17:27:55;98826.53;;;6.37;100.00
27984;BME280;15317;50.360;8.726;2024-03-23T17:32:58;98836.84;;;6.14;100.00
27984;BME280;15317;50.360;8.726;2024-03-23T17:38:00;98839.97;;;6.10;100.00
27984;BME280;15317;50.360;8.726;2024-03-23T17:43:03;98846.25;;;6.01;100.00
27984;BME280;15317;50.360;8.726;2024-03-23T17:48:07;98886.28;;;5.67;100.00
27984;BME280;15317;50.360;8.726;2024-03-23T17:53:09;98872.69;;;4.91;100.00
27984;BME280;15317;50.360;8.726;2024-03-23T17:58:11;98836.53;;;4.15;100.00
27984;BME280;15317;50.360;8.726;2024-03-23T18:03:15;98811.81;;;3.91;100.00
27984;BME280;15317;50.360;8.726;2024-03-23T18:08:17;98823.53;;;3.60;100.00
27984;BME280;15317;50.360;8.726;2024-03-23T18:13:19;98815.69;;;3.47;100.00
27984;BME280;15317;50.360;8.726;2024-03-23T18:18:23;98813.69;;;3.28;100.00
27984;BME280;15317;50.360;8.726;2024-03-23T18:23:25;98832.75;;;3.25;100.00
27984;BME280;15317;50.360;8.726;2024-03-23T18:28:27;98828.22;;;3.05;100.00
27984;BME280;15317;50.360;8.726;2024-03-23T18:33:35;98822.19;;;2.92;100.00
27984;BME280;15317;50.360;8.726;2024-03-23T18:38:38;98829.75;;;2.87;100.00
27984;BME280;15317;50.360;8.726;2024-03-23T18:43:40;98840.72;;;2.84;100.00
27984;BME280;15317;50.360;8.726;2024-03-23T18:48:43;98839.16;;;2.81;100.00
27984;BME280;15317;50.360;8.726;2024-03-23T18:53:46;98840.47;;;2.87;100.00
27984;BME280;15317;50.360;8.726;2024-03-23T18:58:48;98839.97;;;2.93;100.00
27984;BME280;15317;50.360;8.726;2024-03-23T19:03:51;98839.97;;;2.93;100.00
27984;BME280;15317;50.360;8.726;2024-03-23T19:08:53;98837.03;;;2.96;100.00
27984;BME280;15317;50.360;8.726;2024-03-23T19:13:55;98845.28;;;3.04;100.00
27984;BME280;15317;50.360;8.726;2024-03-23T19:18:59;98831.19;;;2.91;100.00
27984;BME280;15317;50.360;8.726;2024-03-23T19:24:01;98820.34;;;2.92;100.00
27984;BME280;15317;50.360;8.726;2024-03-23T19:29:03;98827.78;;;2.89;100.00
27984;BME280;15317;50.360;8.726;2024-03-23T19:34:08;98823.91;;;2.82;100.00
27984;BME280;15317;50.360;8.726;2024-03-23T19:39:10;98809.59;;;2.71;100.00
27984;BME280;15317;50.360;8.726;2024-03-23T19:44:13;98805.06;;;2.72;100.00
27984;BME280;15317;50.360;8.726;2024-03-23T19:49:16;98811.28;;;2.72;100.00
27984;BME280;15317;50.360;8.726;2024-03-23T19:54:19;98809.69;;;2.70;100.00
27984;BME280;15317;50.360;8.726;2024-03-23T19:59:21;98805.59;;;2.66;100.00
27984;BME280;15317;50.360;8.726;2024-03-23T20:04:26;98806.41;;;2.66;100.00
27984;BME280;15317;50.360;8.726;2024-03-23T20:09:28;98806.22;;;2.58;100.00
27984;BME280;15317;50.360;8.726;2024-03-23T20:14:32;98796.13;;;2.51;100.00
27984;BME280;15317;50.360;8.726;2024-03-23T20:19:35;98788.69;;;2.43;100.00
27984;BME280;15317;50.360;8.726;2024-03-23T20:24:38;98787.22;;;2.39;100.00
27984;BME280;15317;50.360;8.726;2024-03-23T20:29:40;98785.34;;;2.30;100.00
27984;BME280;15317;50.360;8.726;2024-03-23T20:34:44;98793.88;;;2.24;100.00
27984;BME280;15317;50.360;8.726;2024-03-23T20:39:46;98801.66;;;2.16;100.00
27984;BME280;15317;50.360;8.726;2024-03-23T20:44:48;98800.19;;;2.12;100.00
27984;BME280;15317;50.360;8.726;2024-03-23T20:49:54;98805.47;;;2.02;100.00
27984;BME280;15317;50.360;8.726;2024-03-23T20:54:56;98810.06;;;2.00;100.00
27984;BME280;15317;50.360;8.726;2024-03-23T20:59:58;98817.75;;;2.05;100.00
27984;BME280;15317;50.360;8.726;2024-03-23T21:05:02;98825.81;;;2.05;100.00
27984;BME280;15317;50.360;8.726;2024-03-23T21:10:06;98825.53;;;2.08;100.00
27984;BME280;15317;50.360;8.726;2024-03-23T21:15:09;98811.41;;;2.06;100.00
27984;BME280;15317;50.360;8.726;2024-03-23T21:20:12;98813.59;;;2.12;100.00
27984;BME280;15317;50.360;8.726;2024-03-23T21:25:14;98811.53;;;2.15;100.00
27984;BME280;15317;50.360;8.726;2024-03-23T21:30:17;98813.59;;;2.12;100.00
27984;BME280;15317;50.360;8.726;2024-03-23T21:35:21;98804.38;;;2.05;100.00
27984;BME280;15317;50.360;8.726;2024-03-23T21:40:23;98801.44;;;1.96;100.00
27984;BME280;15317;50.360;8.726;2024-03-23T21:45:25;98798.63;;;1.98;100.00
27984;BME280;15317;50.360;8.726;2024-03-23T21:50:29;98789.50;;;2.01;100.00
27984;BME280;15317;50.360;8.726;2024-03-23T21:55:31;98787.56;;;1.91;100.00
27984;BME280;15317;50.360;8.726;2024-03-23T22:00:33;98778.81;;;1.89;100.00
27984;BME280;15317;50.360;8.726;2024-03-23T22:05:36;98777.34;;;1.85;100.00
27984;BME280;15317;50.360;8.726;2024-03-23T22:10:39;98779.31;;;1.83;100.00
27984;BME280;15317;50.360;8.726;2024-03-23T22:15:44;98777.22;;;1.87;100.00
27984;BME280;15317;50.360;8.726;2024-03-23T22:20:54;98774.44;;;1.88;100.00
27984;BME280;15317;50.360;8.726;2024-03-23T22:25:57;98767.59;;;1.95;100.00
27984;BME280;15317;50.360;8.726;2024-03-23T22:31:00;98760.91;;;2.01;100.00
27984;BME280;15317;50.360;8.726;2024-03-23T22:36:06;98756.63;;;1.98;100.00
27984;BME280;15317;50.360;8.726;2024-03-23T22:41:09;98756.41;;;2.02;100.00
27984;BME280;15317;50.360;8.726;2024-03-23T22:46:11;98753.94;;;1.98;100.00
27984;BME280;15317;50.360;8.726;2024-03-23T22:51:14;98760.31;;;1.97;100.00
27984;BME280;15317;50.360;8.726;2024-03-23T22:56:16;98750.81;;;1.93;100.00
27984;BME280;15317;50.360;8.726;2024-03-23T23:01:19;98750.41;;;1.98;100.00
27984;BME280;15317;50.360;8.726;2024-03-23T23:06:23;98745.69;;;2.02;100.00
27984;BME280;15317;50.360;8.726;2024-03-23T23:11:26;98741.25;;;2.12;100.00
27984;BME280;15317;50.360;8.726;2024-03-23T23:16:28;98733.97;;;2.14;100.00
27984;BME280;15317;50.360;8.726;2024-03-23T23:21:32;98735.16;;;2.21;100.00
27984;BME280;15317;50.360;8.726;2024-03-23T23:26:34;98734.88;;;2.35;100.00
27984;BME280;15317;50.360;8.726;2024-03-23T23:31:36;98731.56;;;2.43;100.00
27984;BME280;15317;50.360;8.726;2024-03-23T23:36:40;98728.91;;;2.43;100.00
27984;BME280;15317;50.360;8.726;2024-03-23T23:41:42;98722.91;;;2.39;100.00
27984;BME280;15317;50.360;8.726;2024-03-23T23:46:44;98720.25;;;2.39;100.00
27984;BME280;15317;50.360;8.726;2024-03-23T23:51:48;98719.03;;;2.43;100.00
27984;BME280;15317;50.360;8.726;2024-03-23T23:56:50;98708.31;;;2.43;100.00
